createdAt,value
2023-04-01T00:02:01.777Z,96183.31
2023-04-01T00:04:31.122Z,96188.30
2023-04-01T00:07:00.975Z,96184.72
2023-04-01T00:09:30.110Z,96181.10
2023-04-01T00:12:00.208Z,96169.77
2023-04-01T00:14:30.542Z,96164.50
2023-04-01T00:16:59.775Z,96163.08
2023-04-01T00:19:29.949Z,96159.92
2023-04-01T00:22:00.702Z,96156.41
2023-04-01T00:24:32.070Z,96154.96
2023-04-01T00:27:01.399Z,96144.31
2023-04-01T00:29:31.886Z,96147.65
2023-04-01T00:32:01.293Z,96146.63
2023-04-01T00:34:30.724Z,96146.91
2023-04-01T00:37:01.799Z,96151.71
2023-04-01T00:39:32.782Z,96152.40
2023-04-01T00:42:04.514Z,96158.10
2023-04-01T00:44:36.292Z,96153.05
2023-04-01T00:47:06.525Z,96146.83
2023-04-01T00:49:42.442Z,96141.55
2023-04-01T00:52:15.561Z,96130.52
2023-04-01T00:54:49.762Z,96124.69
2023-04-01T00:57:48.726Z,96117.24
2023-04-01T01:00:20.134Z,96111.73
2023-04-01T01:02:53.130Z,96110.58
2023-04-01T01:05:48.152Z,96112.50
2023-04-01T01:08:54.205Z,96120.06
2023-04-01T01:11:42.739Z,96111.61
2023-04-01T01:14:35.641Z,96100.17
2023-04-01T01:17:27.894Z,96081.02
2023-04-01T01:20:31.774Z,96083.58
2023-04-01T01:23:22.327Z,96078.35
2023-04-01T01:26:10.462Z,96075.81
2023-04-01T01:28:52.830Z,96082.26
2023-04-01T01:31:36.496Z,96077.97
2023-04-01T01:34:25.688Z,96077.07
2023-04-01T01:36:59.377Z,96074.52
2023-04-01T01:39:35.236Z,96071.20
2023-04-01T01:42:09.638Z,96072.23
2023-04-01T01:44:43.143Z,96073.16
2023-04-01T01:47:13.344Z,96071.50
2023-04-01T01:49:43.710Z,96072.58
2023-04-01T01:52:14.642Z,96068.69
2023-04-01T01:54:53.114Z,96069.16
2023-04-01T01:57:38.001Z,96062.72
2023-04-01T02:00:16.808Z,96058.93
2023-04-01T02:02:49.225Z,96063.54
2023-04-01T02:05:26.304Z,96063.17
2023-04-01T02:08:09.040Z,96070.73
2023-04-01T02:10:44.086Z,96071.78
2023-04-01T02:14:00.254Z,96067.67
2023-04-01T02:16:36.155Z,96058.91
2023-04-01T02:19:11.940Z,96058.27
2023-04-01T02:21:44.143Z,96060.80
2023-04-01T02:24:17.039Z,96055.89
2023-04-01T02:26:47.620Z,96054.77
2023-04-01T02:29:20.909Z,96050.89
2023-04-01T02:31:52.052Z,96042.63
2023-04-01T02:34:23.054Z,96037.08
2023-04-01T02:36:54.688Z,96031.21
2023-04-01T02:39:24.783Z,96023.06
2023-04-01T02:41:53.858Z,96024.19
2023-04-01T02:44:22.871Z,96032.73
2023-04-01T02:46:52.027Z,96034.88
2023-04-01T02:49:21.420Z,96036.49
2023-04-01T02:51:51.756Z,96032.98
2023-04-01T02:54:22.602Z,96030.14
2023-04-01T02:56:52.991Z,96037.05
2023-04-01T02:59:23.384Z,96035.55
2023-04-01T03:01:54.079Z,96028.61
2023-04-01T03:04:23.745Z,96027.45
2023-04-01T03:06:53.560Z,96031.77
2023-04-01T03:09:23.310Z,96029.43
2023-04-01T03:11:52.681Z,96026.08
2023-04-01T03:14:22.447Z,96027.05
2023-04-01T03:16:51.618Z,96027.61
2023-04-01T03:19:21.945Z,96024.42
2023-04-01T03:21:51.700Z,96014.95
2023-04-01T03:24:22.313Z,96014.91
2023-04-01T03:26:52.601Z,96013.98
2023-04-01T03:29:22.967Z,96013.31
2023-04-01T03:31:52.420Z,96014.86
2023-04-01T03:34:21.688Z,96017.35
2023-04-01T03:36:50.960Z,96017.89
2023-04-01T03:39:20.604Z,96016.31
2023-04-01T03:41:50.583Z,96009.64
2023-04-01T03:44:19.886Z,96004.20
2023-04-01T03:46:50.755Z,96003.97
2023-04-01T03:49:19.948Z,96004.16
2023-04-01T03:51:49.742Z,96000.55
2023-04-01T03:54:21.918Z,96001.80
2023-04-01T03:56:52.736Z,95996.45
2023-04-01T03:59:22.898Z,95998.77
2023-04-01T04:01:52.083Z,95995.10
2023-04-01T04:04:21.367Z,95989.51
2023-04-01T04:06:50.686Z,95983.98
2023-04-01T04:09:20.370Z,95985.78
2023-04-01T04:11:51.434Z,95985.44
2023-04-01T04:14:20.803Z,95979.23
2023-04-01T04:16:50.332Z,95973.99
2023-04-01T04:19:19.432Z,95970.49
2023-04-01T04:21:48.295Z,95969.61
2023-04-01T04:24:17.372Z,95980.59
2023-04-01T04:27:05.642Z,95987.63
2023-04-01T04:29:34.909Z,95991.86
2023-04-01T04:32:04.381Z,95994.46
2023-04-01T04:34:34.043Z,95996.34
2023-04-01T04:37:03.403Z,95988.91
2023-04-01T04:39:34.983Z,95985.50
2023-04-01T04:42:04.228Z,95983.23
2023-04-01T04:44:33.187Z,95979.73
2023-04-01T04:47:03.205Z,95983.96
2023-04-01T04:49:32.317Z,95990.11
2023-04-01T04:52:01.865Z,95992.63
2023-04-01T04:54:31.435Z,96001.20
2023-04-01T04:57:01.552Z,96000.98
2023-04-01T04:59:33.405Z,96007.24
2023-04-01T05:02:08.926Z,96004.56
2023-04-01T05:04:38.116Z,96000.02
2023-04-01T05:07:08.340Z,95997.55
2023-04-01T05:09:37.447Z,95996.87
2023-04-01T05:12:06.775Z,95994.08
2023-04-01T05:14:58.676Z,95991.33
2023-04-01T05:17:27.733Z,95988.27
2023-04-01T05:19:56.396Z,95987.06
2023-04-01T05:22:25.572Z,95984.30
2023-04-01T05:24:54.957Z,95981.80
2023-04-01T05:27:24.681Z,95980.55
2023-04-01T05:29:53.548Z,95968.60
2023-04-01T05:32:51.949Z,95967.20
2023-04-01T05:35:20.677Z,95967.91
2023-04-01T05:37:49.401Z,95973.81
2023-04-01T05:40:18.685Z,95982.05
2023-04-01T05:42:47.225Z,95979.80
2023-04-01T05:45:16.950Z,95978.68
2023-04-01T05:48:04.862Z,95985.05
2023-04-01T05:50:40.887Z,95985.38
2023-04-01T05:53:09.452Z,95984.48
2023-04-01T05:55:38.144Z,95972.89
2023-04-01T05:58:06.943Z,95971.58
2023-04-01T06:00:36.164Z,95976.42
2023-04-01T06:03:05.011Z,95978.83
2023-04-01T06:05:42.744Z,95979.71
2023-04-01T06:08:19.866Z,95975.95
2023-04-01T06:11:25.082Z,95983.34
2023-04-01T06:14:01.856Z,95993.17
2023-04-01T06:16:37.227Z,95991.08
2023-04-01T06:19:21.077Z,95991.41
2023-04-01T06:22:14.706Z,95994.85
2023-04-01T06:25:01.568Z,95994.02
2023-04-01T06:27:52.917Z,95988.43
2023-04-01T06:30:36.977Z,95983.38
2023-04-01T06:33:31.840Z,95979.30
2023-04-01T06:36:25.231Z,95969.88
2023-04-01T06:39:21.905Z,95964.77
2023-04-01T06:42:16.730Z,95966.06
2023-04-01T06:45:21.944Z,95964.62
2023-04-01T06:48:19.367Z,95961.84
2023-04-01T06:51:33.166Z,95962.75
2023-04-01T06:54:36.279Z,95973.52
2023-04-01T06:57:21.151Z,95972.45
2023-04-01T06:59:50.294Z,95962.71
2023-04-01T07:02:44.495Z,95958.11
2023-04-01T07:05:16.384Z,95952.45
2023-04-01T07:07:50.574Z,95955.05
2023-04-01T07:10:27.295Z,95957.40
2023-04-01T07:13:29.744Z,95961.70
2023-04-01T07:16:14.156Z,95964.10
2023-04-01T07:18:59.535Z,95967.66
2023-04-01T07:21:46.076Z,95972.73
2023-04-01T07:24:35.992Z,95971.83
2023-04-01T07:27:12.195Z,95962.82
2023-04-01T07:29:41.804Z,95955.20
2023-04-01T07:32:17.732Z,95950.80
2023-04-01T07:34:57.759Z,95946.81
2023-04-01T07:37:45.542Z,95939.83
2023-04-01T07:40:30.496Z,95938.23
2023-04-01T07:43:07.371Z,95936.70
2023-04-01T07:45:52.046Z,95933.30
2023-04-01T07:48:21.354Z,95935.36
2023-04-01T07:51:04.480Z,95938.74
2023-04-01T07:54:02.654Z,95936.40
2023-04-01T07:57:07.367Z,95938.02
2023-04-01T08:00:01.506Z,95932.84
2023-04-01T08:02:53.787Z,95937.61
2023-04-01T08:05:56.506Z,95938.76
2023-04-01T08:09:01.412Z,95933.88
2023-04-01T08:11:54.617Z,95928.40
2023-04-01T08:15:05.708Z,95924.84
2023-04-01T08:17:52.141Z,95918.29
2023-04-01T08:20:29.843Z,95921.40
2023-04-01T08:23:06.950Z,95923.61
2023-04-01T08:25:42.318Z,95922.84
2023-04-01T08:28:18.220Z,95919.15
2023-04-01T08:31:01.877Z,95919.85
2023-04-01T08:33:33.468Z,95914.38
2023-04-01T08:36:18.411Z,95910.98
2023-04-01T08:39:03.501Z,95905.33
2023-04-01T08:41:54.683Z,95912.02
2023-04-01T08:44:47.785Z,95917.17
2023-04-01T08:47:41.712Z,95923.30
2023-04-01T08:50:47.609Z,95920.47
2023-04-01T08:53:26.142Z,95916.46
2023-04-01T08:56:16.140Z,95911.73
2023-04-01T08:59:15.919Z,95910.98
2023-04-01T09:02:00.684Z,95907.30
2023-04-01T09:05:07.959Z,95900.26
2023-04-01T09:07:54.938Z,95899.42
2023-04-01T09:10:37.852Z,95904.90
2023-04-01T09:13:44.317Z,95899.48
2023-04-01T09:16:37.914Z,95896.83
2023-04-01T09:19:06.678Z,95892.77
2023-04-01T09:21:44.349Z,95888.81
2023-04-01T09:24:23.265Z,95890.27
2023-04-01T09:27:03.948Z,95885.33
2023-04-01T09:30:10.280Z,95881.29
2023-04-01T09:32:41.709Z,95885.65
2023-04-01T09:36:03.469Z,95887.18
2023-04-01T09:38:58.899Z,95883.49
2023-04-01T09:41:27.998Z,95881.29
2023-04-01T09:44:31.635Z,95878.48
2023-04-01T09:47:36.451Z,95879.16
2023-04-01T09:50:06.682Z,95875.60
2023-04-01T09:52:38.875Z,95871.25
2023-04-01T09:55:58.952Z,95870.66
2023-04-01T09:58:43.811Z,95862.64
2023-04-01T10:01:40.131Z,95857.30
2023-04-01T10:04:41.832Z,95855.02
2023-04-01T10:07:13.630Z,95853.59
2023-04-01T10:10:07.047Z,95852.54
2023-04-01T10:13:02.655Z,95852.81
2023-04-01T10:15:57.085Z,95854.61
2023-04-01T10:18:44.502Z,95849.54
2023-04-01T10:21:51.691Z,95845.83
2023-04-01T10:24:39.210Z,95841.16
2023-04-01T10:27:23.960Z,95844.64
2023-04-01T10:30:30.778Z,95843.73
2023-04-01T10:33:07.835Z,95843.75
2023-04-01T10:36:09.469Z,95844.55
2023-04-01T10:39:35.679Z,95842.92
2023-04-01T10:42:57.616Z,95845.69
2023-04-01T10:46:19.745Z,95848.06
2023-04-01T10:49:19.312Z,95852.17
2023-04-01T10:52:01.226Z,95855.13
2023-04-01T10:55:01.949Z,95852.32
2023-04-01T10:57:56.242Z,95851.75
2023-04-01T11:00:55.912Z,95850.54
2023-04-01T11:03:56.458Z,95847.10
2023-04-01T11:07:08.948Z,95842.89
2023-04-01T11:09:59.545Z,95844.52
2023-04-01T11:12:28.217Z,95842.06
2023-04-01T11:15:15.774Z,95839.77
2023-04-01T11:18:17.138Z,95841.23
2023-04-01T11:21:03.954Z,95837.81
2023-04-01T11:24:05.739Z,95836.08
2023-04-01T11:27:12.406Z,95834.13
2023-04-01T11:30:00.268Z,95835.42
2023-04-01T11:32:56.379Z,95834.54
2023-04-01T11:36:09.209Z,95838.52
2023-04-01T11:38:47.245Z,95835.79
2023-04-01T11:41:53.371Z,95834.66
2023-04-01T11:44:44.683Z,95836.07
2023-04-01T11:47:37.774Z,95831.38
2023-04-01T11:50:25.395Z,95832.28
2023-04-01T11:53:06.832Z,95825.19
2023-04-01T11:55:48.633Z,95827.38
2023-04-01T11:58:35.741Z,95829.21
2023-04-01T12:01:38.937Z,95833.23
2023-04-01T12:04:31.936Z,95830.50
2023-04-01T12:07:44.245Z,95829.67
2023-04-01T12:10:32.462Z,95825.46
2023-04-01T12:13:33.145Z,95818.57
2023-04-01T12:16:18.030Z,95819.27
2023-04-01T12:18:52.451Z,95817.20
2023-04-01T12:21:38.465Z,95816.38
2023-04-01T12:24:27.326Z,95814.29
2023-04-01T12:27:01.759Z,95815.02
2023-04-01T12:29:50.010Z,95818.63
2023-04-01T12:32:27.630Z,95814.55
2023-04-01T12:35:08.393Z,95817.32
2023-04-01T12:38:00.853Z,95823.17
2023-04-01T12:40:57.451Z,95818.73
2023-04-01T12:43:58.391Z,95819.45
2023-04-01T12:46:54.182Z,95812.88
2023-04-01T12:50:01.637Z,95810.59
2023-04-01T12:53:04.407Z,95809.91
2023-04-01T12:55:45.771Z,95804.70
2023-04-01T12:58:24.107Z,95803.92
2023-04-01T13:01:30.730Z,95805.73
2023-04-01T13:04:20.688Z,95803.51
2023-04-01T13:07:13.596Z,95806.47
2023-04-01T13:09:54.452Z,95803.25
2023-04-01T13:12:57.168Z,95803.89
2023-04-01T13:15:54.007Z,95799.48
2023-04-01T13:18:54.934Z,95798.86
2023-04-01T13:21:45.706Z,95796.07
2023-04-01T13:24:29.578Z,95801.89
2023-04-01T13:27:20.073Z,95799.60
2023-04-01T13:30:22.714Z,95793.19
2023-04-01T13:32:56.975Z,95791.75
2023-04-01T13:35:40.796Z,95791.80
2023-04-01T13:38:44.795Z,95790.65
2023-04-01T13:41:44.245Z,95789.08
2023-04-01T13:44:16.876Z,95783.02
2023-04-01T13:46:55.001Z,95787.52
2023-04-01T13:49:57.485Z,95790.91
2023-04-01T13:52:59.641Z,95787.21
2023-04-01T13:56:06.198Z,95780.94
2023-04-01T13:59:00.391Z,95779.52
2023-04-01T14:01:50.318Z,95778.27
2023-04-01T14:04:24.481Z,95777.70
2023-04-01T14:07:18.474Z,95774.39
2023-04-01T14:10:14.504Z,95772.05
2023-04-01T14:12:45.960Z,95768.94
2023-04-01T14:15:40.033Z,95768.97
2023-04-01T14:18:27.782Z,95769.67
2023-04-01T14:21:20.211Z,95771.01
2023-04-01T14:24:16.328Z,95769.10
2023-04-01T14:27:03.362Z,95773.23
2023-04-01T14:29:53.432Z,95774.17
2023-04-01T14:32:47.943Z,95774.44
2023-04-01T14:35:39.186Z,95774.31
2023-04-01T14:38:13.373Z,95774.38
2023-04-01T14:40:53.772Z,95773.41
2023-04-01T14:43:29.136Z,95771.20
2023-04-01T14:46:35.358Z,95767.98
2023-04-01T14:49:35.423Z,95767.17
2023-04-01T14:52:17.036Z,95766.43
2023-04-01T14:54:48.056Z,95770.92
2023-04-01T14:57:29.626Z,95768.20
2023-04-01T15:00:07.790Z,95767.87
2023-04-01T15:03:20.741Z,95762.58
2023-04-01T15:05:55.249Z,95759.52
2023-04-01T15:08:24.007Z,95758.05
2023-04-01T15:11:16.744Z,95758.84
2023-04-01T15:14:19.724Z,95759.34
2023-04-01T15:16:51.456Z,95756.76
2023-04-01T15:19:42.154Z,95754.73
2023-04-01T15:22:41.223Z,95755.67
2023-04-01T15:25:44.793Z,95754.79
2023-04-01T15:28:44.446Z,95753.13
2023-04-01T15:31:19.116Z,95752.84
2023-04-01T15:34:04.834Z,95752.51
2023-04-01T15:36:52.799Z,95752.87
2023-04-01T15:39:40.001Z,95755.86
2023-04-01T15:42:20.334Z,95757.56
2023-04-01T15:45:00.796Z,95758.38
2023-04-01T15:47:36.512Z,95760.02
2023-04-01T15:50:38.312Z,95761.24
2023-04-01T15:53:19.103Z,95756.84
2023-04-01T15:55:56.022Z,95763.66
2023-04-01T15:58:42.709Z,95763.02
2023-04-01T16:01:27.631Z,95762.84
2023-04-01T16:04:33.957Z,95765.30
2023-04-01T16:07:37.293Z,95770.00
2023-04-01T16:10:23.189Z,95769.65
2023-04-01T16:13:02.575Z,95769.15
2023-04-01T16:15:46.425Z,95770.17
2023-04-01T16:18:39.168Z,95768.59
2023-04-01T16:21:39.591Z,95774.59
2023-04-01T16:24:39.725Z,95776.81
2023-04-01T16:27:23.491Z,95779.35
2023-04-01T16:30:29.865Z,95779.15
2023-04-01T16:33:21.688Z,95783.27
2023-04-01T16:35:56.931Z,95784.93
2023-04-01T16:38:32.714Z,95785.50
2023-04-01T16:41:04.065Z,95788.09
2023-04-01T16:43:49.135Z,95793.85
2023-04-01T16:46:28.655Z,95796.69
2023-04-01T16:49:12.720Z,95796.03
2023-04-01T16:52:04.139Z,95797.63
2023-04-01T16:54:45.486Z,95799.17
2023-04-01T16:57:32.334Z,95800.84
2023-04-01T17:00:25.205Z,95799.22
2023-04-01T17:03:05.946Z,95803.44
2023-04-01T17:06:03.605Z,95807.33
2023-04-01T17:08:37.957Z,95808.48
2023-04-01T17:11:28.654Z,95814.73
2023-04-01T17:14:06.330Z,95814.31
2023-04-01T17:16:46.184Z,95819.23
2023-04-01T17:19:14.773Z,95820.68
2023-04-01T17:21:43.274Z,95821.33
2023-04-01T17:24:39.278Z,95822.86
2023-04-01T17:27:33.322Z,95826.48
2023-04-01T17:30:18.210Z,95825.43
2023-04-01T17:33:17.123Z,95830.48
2023-04-01T17:36:08.665Z,95834.04
2023-04-01T17:38:40.113Z,95834.77
2023-04-01T17:41:29.990Z,95837.64
2023-04-01T17:44:22.678Z,95839.02
2023-04-01T17:47:11.247Z,95842.77
2023-04-01T17:49:58.132Z,95844.40
2023-04-01T17:52:39.156Z,95850.36
2023-04-01T17:55:29.423Z,95857.04
2023-04-01T17:58:42.687Z,95859.41
2023-04-01T18:01:13.819Z,95856.05
2023-04-01T18:03:58.062Z,95860.44
2023-04-01T18:06:38.561Z,95857.63
2023-04-01T18:09:16.035Z,95857.55
2023-04-01T18:12:07.978Z,95858.12
2023-04-01T18:14:46.098Z,95860.20
2023-04-01T18:17:17.281Z,95858.41
2023-04-01T18:19:57.504Z,95858.77
2023-04-01T18:22:52.879Z,95860.48
2023-04-01T18:25:29.904Z,95862.83
2023-04-01T18:28:22.792Z,95862.88
2023-04-01T18:31:12.441Z,95868.58
2023-04-01T18:34:08.430Z,95866.45
2023-04-01T18:36:48.469Z,95865.56
2023-04-01T18:39:29.761Z,95867.02
2023-04-01T18:42:21.429Z,95867.61
2023-04-01T18:45:08.001Z,95872.81
2023-04-01T18:47:47.008Z,95871.21
2023-04-01T18:50:34.689Z,95873.91
2023-04-01T18:53:30.217Z,95873.08
2023-04-01T18:56:16.491Z,95872.16
2023-04-01T18:59:03.245Z,95874.77
2023-04-01T19:01:41.469Z,95873.55
2023-04-01T19:04:27.252Z,95882.35
2023-04-01T19:06:59.798Z,95880.79
2023-04-01T19:09:31.778Z,95880.42
2023-04-01T19:12:18.781Z,95885.38
2023-04-01T19:14:50.453Z,95886.39
2023-04-01T19:17:45.347Z,95887.49
2023-04-01T19:20:37.190Z,95890.88
2023-04-01T19:23:53.840Z,95892.03
2023-04-01T19:26:31.618Z,95890.52
2023-04-01T19:29:33.124Z,95893.08
2023-04-01T19:32:25.038Z,95896.69
2023-04-01T19:35:29.061Z,95895.92
2023-04-01T19:38:09.491Z,95895.40
2023-04-01T19:40:49.334Z,95895.88
2023-04-01T19:43:20.445Z,95896.33
2023-04-01T19:46:04.104Z,95901.10
2023-04-01T19:48:44.823Z,95900.04
2023-04-01T19:51:43.102Z,95899.63
2023-04-01T19:54:31.968Z,95898.91
2023-04-01T19:57:29.214Z,95898.10
2023-04-01T20:00:19.397Z,95901.52
2023-04-01T20:02:52.292Z,95905.79
2023-04-01T20:05:39.542Z,95907.21
2023-04-01T20:08:32.802Z,95903.83
2023-04-01T20:11:16.893Z,95904.64
2023-04-01T20:13:51.158Z,95905.71
2023-04-01T20:16:20.005Z,95905.23
2023-04-01T20:19:01.523Z,95906.46
2023-04-01T20:21:51.145Z,95908.88
2023-04-01T20:24:34.276Z,95912.33
2023-04-01T20:27:24.201Z,95914.36
2023-04-01T20:30:23.140Z,95914.92
2023-04-01T20:32:57.601Z,95915.36
2023-04-01T20:35:51.467Z,95919.30
2023-04-01T20:38:41.813Z,95914.61
2023-04-01T20:41:34.009Z,95918.55
2023-04-01T20:44:20.764Z,95924.83
2023-04-01T20:47:39.944Z,95923.33
2023-04-01T20:50:08.639Z,95921.20
2023-04-01T20:52:57.140Z,95920.60
2023-04-01T20:55:44.383Z,95922.73
2023-04-01T20:58:30.783Z,95921.34
2023-04-01T21:01:28.685Z,95924.69
2023-04-01T21:04:20.312Z,95924.70
2023-04-01T21:06:57.688Z,95925.18
2023-04-01T21:09:41.839Z,95928.27
2023-04-01T21:12:32.332Z,95928.81
2023-04-01T21:15:20.334Z,95932.09
2023-04-01T21:17:51.750Z,95931.23
2023-04-01T21:21:04.028Z,95936.53
2023-04-01T21:23:54.614Z,95936.89
2023-04-01T21:26:47.895Z,95940.27
2023-04-01T21:29:31.315Z,95942.11
2023-04-01T21:32:21.360Z,95938.58
2023-04-01T21:34:52.175Z,95942.92
2023-04-01T21:37:30.727Z,95944.67
2023-04-01T21:40:25.985Z,95948.03
2023-04-01T21:43:18.297Z,95947.17
2023-04-01T21:46:30.878Z,95948.45
2023-04-01T21:49:21.217Z,95948.92
2023-04-01T21:52:26.900Z,95955.55
2023-04-01T21:55:36.899Z,95960.33
2023-04-01T21:58:17.930Z,95962.73
2023-04-01T22:00:55.725Z,95961.14
2023-04-01T22:03:39.591Z,95961.47
2023-04-01T22:06:27.013Z,95963.09
2023-04-01T22:09:17.415Z,95959.90
2023-04-01T22:12:05.603Z,95959.68
2023-04-01T22:14:47.629Z,95959.24
2023-04-01T22:17:20.333Z,95962.22
2023-04-01T22:20:18.067Z,95962.00
2023-04-01T22:23:14.543Z,95964.38
2023-04-01T22:26:15.250Z,95964.52
2023-04-01T22:29:01.238Z,95961.89
2023-04-01T22:31:40.013Z,95956.94
2023-04-01T22:34:22.917Z,95955.82
2023-04-01T22:37:12.260Z,95964.36
2023-04-01T22:40:18.427Z,95962.14
2023-04-01T22:42:54.988Z,95962.39
2023-04-01T22:45:58.682Z,95963.92
2023-04-01T22:48:50.818Z,95963.52
2023-04-01T22:51:28.634Z,95963.52
2023-04-01T22:54:35.225Z,95968.88
2023-04-01T22:57:14.772Z,95967.62
2023-04-01T22:59:44.175Z,95969.81
2023-04-01T23:02:18.402Z,95971.56
2023-04-01T23:04:56.736Z,95972.65
2023-04-01T23:07:36.689Z,95978.52
2023-04-01T23:10:16.669Z,95978.57
2023-04-01T23:12:48.121Z,95979.39
2023-04-01T23:15:18.793Z,95976.73
2023-04-01T23:18:05.851Z,95974.63
2023-04-01T23:20:56.309Z,95977.20
2023-04-01T23:24:00.877Z,95976.58
2023-04-01T23:26:49.045Z,95979.20
2023-04-01T23:29:19.907Z,95979.58
2023-04-01T23:31:58.752Z,95982.02
2023-04-01T23:34:32.788Z,95981.45
2023-04-01T23:37:23.968Z,95980.21
2023-04-01T23:39:57.562Z,95984.34
2023-04-01T23:42:42.380Z,95982.09
2023-04-01T23:45:18.782Z,95983.73
2023-04-01T23:47:53.683Z,95986.70
2023-04-01T23:50:27.014Z,95985.36
2023-04-01T23:53:14.644Z,95982.88
2023-04-01T23:55:44.693Z,95980.53
2023-04-01T23:58:48.149Z,95984.06
